Time;durP1;ratioP1;P1;durP2;ratioP2;P2;SDS_P1;SDS_P2;PMS_P1;PMS_P2;Temp;Humidity;BMP_temperature;BMP_pressure;BME280_temperature;BME280_humidity;BME280_pressure;Samples;Min_cycle;Max_cycle;Signal;HPM_P1;HPM_P2
2023/12/01 00:01:10;;;;;;;0.50;0.50;;;;;;;;;;6276412;22;20060;-89
2023/12/01 00:03:55;;;;;;;0.50;0.50;;;;;;;;;;6281410;22;20022;-92
2023/12/01 00:06:28;;;;;;;0.50;0.50;;;;;;;;;;6275975;22;20011;-90
2023/12/01 00:08:55;;;;;;;0.60;0.60;;;;;;;;;;6276591;22;20082;-89
2023/12/01 00:11:31;;;;;;;0.50;0.50;;;;;;;;;;6249647;22;20018;-90
2023/12/01 00:21:49;;;;;;;0.50;0.50;;;;;;;;;;6241915;22;20008;-91
2023/12/01 00:24:17;;;;;;;0.60;0.60;;;;;;;;;;6241291;23;20024;-90
2023/12/01 00:26:44;;;;;;;0.50;0.50;;;;;;;;;;6215878;23;20008;-91
2023/12/01 00:29:10;;;;;;;0.50;0.50;;;;;;;;;;6214516;23;20068;-93
2023/12/01 00:31:39;;;;;;;0.50;0.50;;;;;;;;;;6214454;23;20047;-90
2023/12/01 00:34:11;;;;;;;0.50;0.50;;;;;;;;;;6240884;23;20013;-92
2023/12/01 00:36:50;;;;;;;0.50;0.50;;;;;;;;;;6240718;23;20028;-90
2023/12/01 00:39:19;;;;;;;0.50;0.50;;;;;;;;;;6241617;23;20016;-92
2023/12/01 00:41:46;;;;;;;0.50;0.50;;;;;;;;;;6214184;23;20027;-91
2023/12/01 00:44:32;;;;;;;0.50;0.50;;;;;;;;;;6238468;23;20032;-92
2023/12/01 00:47:02;;;;;;;0.40;0.40;;;;;;;;;;6214071;23;20020;-90
2023/12/01 00:49:31;;;;;;;0.50;0.50;;;;;;;;;;6216957;23;20027;-91
2023/12/01 00:52:04;;;;;;;0.60;0.60;;;;;;;;;;6215641;23;20020;-92
2023/12/01 00:57:20;;;;;;;0.50;0.50;;;;;;;;;;6241193;22;20008;-91
2023/12/01 00:59:57;;;;;;;0.50;0.50;;;;;;;;;;6215413;23;20029;-90
2023/12/01 01:02:25;;;;;;;0.60;0.60;;;;;;;;;;6218363;23;20020;-90
2023/12/01 01:04:51;;;;;;;0.60;0.60;;;;;;;;;;6217855;23;20001;-91
2023/12/01 01:07:17;;;;;;;0.60;0.60;;;;;;;;;;6218322;23;20015;-90
2023/12/01 01:15:02;;;;;;;0.50;0.50;;;;;;;;;;6267656;22;20062;-91
2023/12/01 01:17:31;;;;;;;0.50;0.50;;;;;;;;;;6247704;23;20030;-91
2023/12/01 01:20:02;;;;;;;0.60;0.60;;;;;;;;;;6272182;23;20016;-91
2023/12/01 01:22:32;;;;;;;0.50;0.50;;;;;;;;;;6250593;22;20071;-90
2023/12/01 01:25:09;;;;;;;0.50;0.50;;;;;;;;;;6274199;23;20026;-90
2023/12/01 01:27:36;;;;;;;0.50;0.50;;;;;;;;;;6248695;22;20011;-91
2023/12/01 01:30:14;;;;;;;0.50;0.50;;;;;;;;;;6225391;22;20051;-91
2023/12/01 01:32:41;;;;;;;0.50;0.50;;;;;;;;;;6248891;23;20017;-90
2023/12/01 01:40:28;;;;;;;0.50;0.50;;;;;;;;;;6255737;22;20245;-90
2023/12/01 01:42:55;;;;;;;0.50;0.50;;;;;;;;;;6248829;23;20016;-91
2023/12/01 01:45:22;;;;;;;0.50;0.50;;;;;;;;;;6228270;22;20059;-91
2023/12/01 01:47:49;;;;;;;0.50;0.50;;;;;;;;;;6218717;23;20067;-91
2023/12/01 01:50:28;;;;;;;0.50;0.50;;;;;;;;;;6243188;23;20027;-90
2023/12/01 01:52:56;;;;;;;0.50;0.50;;;;;;;;;;6218727;23;20025;-91
2023/12/01 01:55:30;;;;;;;0.50;0.50;;;;;;;;;;6219177;23;20005;-91
2023/12/01 01:57:58;;;;;;;0.50;0.50;;;;;;;;;;6218543;23;20073;-91
2023/12/01 02:02:59;;;;;;;0.50;0.50;;;;;;;;;;6303532;22;20034;-91
2023/12/01 02:05:34;;;;;;;0.60;0.60;;;;;;;;;;6284303;22;20023;-90
2023/12/01 02:08:22;;;;;;;0.50;0.50;;;;;;;;;;6285156;22;20095;-91
2023/12/01 02:10:49;;;;;;;0.60;0.60;;;;;;;;;;6280977;22;20015;-91
2023/12/01 02:15:53;;;;;;;0.50;0.50;;;;;;;;;;6197656;22;20027;-90
2023/12/01 02:18:27;;;;;;;0.50;0.50;;;;;;;;;;6277266;22;20003;-91
2023/12/01 02:20:56;;;;;;;0.50;0.50;;;;;;;;;;6275772;22;20003;-91
2023/12/01 02:26:09;;;;;;;0.50;0.50;;;;;;;;;;6243580;22;20008;-89
2023/12/01 02:28:37;;;;;;;0.50;0.50;;;;;;;;;;6217387;23;20011;-91
2023/12/01 02:31:06;;;;;;;0.50;0.50;;;;;;;;;;6239376;23;20499;-90
2023/12/01 02:38:44;;;;;;;0.50;0.50;;;;;;;;;;6262341;22;20051;-90
2023/12/01 02:41:17;;;;;;;0.50;0.50;;;;;;;;;;6243091;23;20063;-89
2023/12/01 02:43:48;;;;;;;0.50;0.50;;;;;;;;;;6222201;23;20020;-92
2023/12/01 02:46:15;;;;;;;0.50;0.50;;;;;;;;;;6244521;23;20020;-91
2023/12/01 02:48:41;;;;;;;0.60;0.60;;;;;;;;;;6246245;23;20004;-92
2023/12/01 02:51:09;;;;;;;0.60;0.60;;;;;;;;;;6245115;22;20016;-89
2023/12/01 02:53:35;;;;;;;0.60;0.60;;;;;;;;;;6222862;22;20031;-90
2023/12/01 02:56:05;;;;;;;0.55;0.55;;;;;;;;;;6247465;23;20026;-91
2023/12/01 02:58:31;;;;;;;0.50;0.50;;;;;;;;;;6222441;23;20040;-91
2023/12/01 03:00:58;;;;;;;0.60;0.60;;;;;;;;;;6218800;23;20020;-90
2023/12/01 03:03:24;;;;;;;0.50;0.50;;;;;;;;;;6222061;23;20012;-91
2023/12/01 03:05:56;;;;;;;0.50;0.50;;;;;;;;;;6247056;23;20020;-90
2023/12/01 03:08:22;;;;;;;0.50;0.50;;;;;;;;;;6209514;22;20039;-91
2023/12/01 03:10:48;;;;;;;0.50;0.50;;;;;;;;;;6220369;23;20004;-91
2023/12/01 03:13:14;;;;;;;0.50;0.50;;;;;;;;;;6272541;22;20027;-91
2023/12/01 03:15:41;;;;;;;0.50;0.50;;;;;;;;;;6246313;22;20020;-92
2023/12/01 03:18:08;;;;;;;0.50;0.50;;;;;;;;;;6271629;22;20031;-91
2023/12/01 03:20:41;;;;;;;0.50;0.50;;;;;;;;;;6271522;22;20012;-91
2023/12/01 03:25:49;;;;;;;0.50;0.50;;;;;;;;;;6273993;22;20043;-89
2023/12/01 03:28:19;;;;;;;0.50;0.50;;;;;;;;;;6269945;22;20011;-91
2023/12/01 03:30:49;;;;;;;0.60;0.60;;;;;;;;;;6268039;23;20042;-92
2023/12/01 03:33:19;;;;;;;0.50;0.50;;;;;;;;;;6272333;22;20004;-90
2023/12/01 03:35:45;;;;;;;0.50;0.50;;;;;;;;;;6246414;23;20011;-91
2023/12/01 03:43:27;;;;;;;0.50;0.50;;;;;;;;;;6261582;22;20459;-91
2023/12/01 03:45:53;;;;;;;0.50;0.50;;;;;;;;;;6269780;22;20011;-90
2023/12/01 03:48:22;;;;;;;0.60;0.60;;;;;;;;;;6272705;22;20000;-90
2023/12/01 03:50:50;;;;;;;0.50;0.50;;;;;;;;;;6245972;23;20041;-91
2023/12/01 03:53:20;;;;;;;0.60;0.60;;;;;;;;;;6273575;22;19999;-90
2023/12/01 03:55:51;;;;;;;0.50;0.50;;;;;;;;;;6271530;22;20000;-90
2023/12/01 03:58:27;;;;;;;0.57;0.57;;;;;;;;;;6245652;22;20006;-89
2023/12/01 04:00:55;;;;;;;0.60;0.60;;;;;;;;;;6242250;23;20022;-91
2023/12/01 04:03:24;;;;;;;0.60;0.60;;;;;;;;;;6263664;23;20004;-90
2023/12/01 04:05:51;;;;;;;0.60;0.60;;;;;;;;;;6269605;22;20015;-89
2023/12/01 04:08:18;;;;;;;0.55;0.55;;;;;;;;;;6270785;22;20024;-90
2023/12/01 04:10:46;;;;;;;0.60;0.60;;;;;;;;;;6243305;23;20023;-90
2023/12/01 04:13:13;;;;;;;0.60;0.60;;;;;;;;;;6245848;23;19996;-90
2023/12/01 04:15:41;;;;;;;0.60;0.60;;;;;;;;;;6241975;22;20016;-90
2023/12/01 04:18:10;;;;;;;0.50;0.50;;;;;;;;;;6273088;22;20075;-90
2023/12/01 04:20:38;;;;;;;0.50;0.50;;;;;;;;;;6249942;22;20003;-90
2023/12/01 04:23:09;;;;;;;0.52;0.52;;;;;;;;;;6249852;22;20015;-89
2023/12/01 04:25:39;;;;;;;0.50;0.50;;;;;;;;;;6275897;22;20339;-90
2023/12/01 04:28:08;;;;;;;0.60;0.60;;;;;;;;;;6240579;22;20030;-90
2023/12/01 04:30:35;;;;;;;0.52;0.52;;;;;;;;;;6248337;22;20023;-90
2023/12/01 04:33:01;;;;;;;0.60;0.60;;;;;;;;;;6223622;22;20023;-90
2023/12/01 04:35:32;;;;;;;0.55;0.55;;;;;;;;;;6275392;22;19999;-88
2023/12/01 04:38:08;;;;;;;0.50;0.50;;;;;;;;;;6275627;22;20019;-90
2023/12/01 04:40:36;;;;;;;0.50;0.50;;;;;;;;;;6247570;22;20015;-91
2023/12/01 04:43:17;;;;;;;0.60;0.60;;;;;;;;;;6278043;22;20022;-91
2023/12/01 04:45:48;;;;;;;0.50;0.50;;;;;;;;;;6273050;22;20012;-91
2023/12/01 04:48:18;;;;;;;0.60;0.60;;;;;;;;;;6248081;22;20015;-91
2023/12/01 04:50:53;;;;;;;0.50;0.50;;;;;;;;;;6273486;22;20012;-90
2023/12/01 04:53:19;;;;;;;0.50;0.50;;;;;;;;;;6244822;22;20018;-90
2023/12/01 04:55:46;;;;;;;0.50;0.50;;;;;;;;;;6246792;22;20360;-90
2023/12/01 04:58:13;;;;;;;0.57;0.57;;;;;;;;;;6273939;22;20019;-90
2023/12/01 05:00:41;;;;;;;0.50;0.50;;;;;;;;;;6296839;22;20006;-90
2023/12/01 05:03:08;;;;;;;0.60;0.60;;;;;;;;;;6272623;22;20022;-89
2023/12/01 05:05:40;;;;;;;0.60;0.60;;;;;;;;;;6245534;22;20042;-90
2023/12/01 05:08:11;;;;;;;0.50;0.50;;;;;;;;;;6248410;22;20016;-90
2023/12/01 05:10:44;;;;;;;0.60;0.60;;;;;;;;;;6248216;22;20024;-89
2023/12/01 05:13:11;;;;;;;0.60;0.60;;;;;;;;;;6246576;22;20016;-90
2023/12/01 05:15:40;;;;;;;0.50;0.50;;;;;;;;;;6273646;22;20064;-90
2023/12/01 05:18:11;;;;;;;0.50;0.50;;;;;;;;;;6273644;22;20011;-90
2023/12/01 05:20:54;;;;;;;0.50;0.50;;;;;;;;;;6270758;22;20024;-90
2023/12/01 05:23:22;;;;;;;0.60;0.60;;;;;;;;;;6246320;22;20015;-90
2023/12/01 05:26:11;;;;;;;0.50;0.50;;;;;;;;;;6300671;22;19998;-91
2023/12/01 05:28:37;;;;;;;0.60;0.60;;;;;;;;;;6249622;22;20016;-90
2023/12/01 05:31:17;;;;;;;0.50;0.50;;;;;;;;;;6226088;22;20007;-90
2023/12/01 05:33:46;;;;;;;0.60;0.60;;;;;;;;;;6268375;22;20016;-91
2023/12/01 05:36:16;;;;;;;0.52;0.52;;;;;;;;;;6275719;22;20022;-89
2023/12/01 05:38:44;;;;;;;0.60;0.60;;;;;;;;;;6249191;22;20011;-90
2023/12/01 05:43:50;;;;;;;0.50;0.50;;;;;;;;;;6271453;22;20030;-90
2023/12/01 05:46:19;;;;;;;0.55;0.55;;;;;;;;;;6259980;22;20000;-90
2023/12/01 05:48:46;;;;;;;0.50;0.50;;;;;;;;;;6273381;23;20004;-89
2023/12/01 05:51:21;;;;;;;0.50;0.50;;;;;;;;;;6267501;22;20027;-91
2023/12/01 05:53:50;;;;;;;0.60;0.60;;;;;;;;;;6272638;22;20014;-89
2023/12/01 05:56:16;;;;;;;0.60;0.60;;;;;;;;;;6273440;22;20054;-90
2023/12/01 05:58:44;;;;;;;0.50;0.50;;;;;;;;;;6244883;23;20059;-90
2023/12/01 06:01:10;;;;;;;0.50;0.50;;;;;;;;;;6217684;23;20012;-90
2023/12/01 06:06:14;;;;;;;0.60;0.60;;;;;;;;;;6289826;22;20067;-90
2023/12/01 06:11:28;;;;;;;0.50;0.50;;;;;;;;;;6274913;22;20021;-88
2023/12/01 06:13:54;;;;;;;0.55;0.55;;;;;;;;;;6272635;23;20035;-88
2023/12/01 06:16:25;;;;;;;0.60;0.60;;;;;;;;;;6269951;23;20016;-89
2023/12/01 06:18:51;;;;;;;0.60;0.60;;;;;;;;;;6244184;23;19996;-89
2023/12/01 06:26:29;;;;;;;0.55;0.55;;;;;;;;;;6254946;22;20033;-89
2023/12/01 06:28:55;;;;;;;0.60;0.60;;;;;;;;;;6242431;23;20015;-90
2023/12/01 06:31:29;;;;;;;0.50;0.50;;;;;;;;;;6238017;23;20092;-89
2023/12/01 06:33:55;;;;;;;0.60;0.60;;;;;;;;;;6216394;23;20020;-90
2023/12/01 06:36:21;;;;;;;0.60;0.60;;;;;;;;;;6215832;23;20016;-89
2023/12/01 06:38:52;;;;;;;0.60;0.60;;;;;;;;;;6237481;23;20001;-89
2023/12/01 06:41:24;;;;;;;0.60;0.60;;;;;;;;;;6240965;23;20035;-89
2023/12/01 06:43:50;;;;;;;0.60;0.60;;;;;;;;;;6213976;23;20348;-90
2023/12/01 06:46:17;;;;;;;0.57;0.57;;;;;;;;;;6215553;23;20024;-90
2023/12/01 06:51:24;;;;;;;0.60;0.60;;;;;;;;;;6262725;22;20008;-89
2023/12/01 06:56:26;;;;;;;0.50;0.50;;;;;;;;;;6246396;22;20030;-89
2023/12/01 06:59:04;;;;;;;0.55;0.55;;;;;;;;;;6277218;22;20044;-89
2023/12/01 07:01:35;;;;;;;0.60;0.60;;;;;;;;;;6274089;22;20024;-89
2023/12/01 07:04:07;;;;;;;0.60;0.60;;;;;;;;;;6273625;22;20034;-90
2023/12/01 07:06:37;;;;;;;0.50;0.50;;;;;;;;;;6249917;22;20050;-90
2023/12/01 07:09:05;;;;;;;0.60;0.60;;;;;;;;;;6249149;22;20015;-90
2023/12/01 07:11:34;;;;;;;0.60;0.60;;;;;;;;;;6274732;22;20023;-90
2023/12/01 07:14:01;;;;;;;0.60;0.60;;;;;;;;;;6275085;22;20015;-90
2023/12/01 07:16:31;;;;;;;0.60;0.60;;;;;;;;;;6276063;22;20020;-89
2023/12/01 07:19:03;;;;;;;0.50;0.50;;;;;;;;;;6250452;22;20030;-90
2023/12/01 07:24:14;;;;;;;0.50;0.50;;;;;;;;;;6237497;23;20008;-91
2023/12/01 07:27:02;;;;;;;0.60;0.60;;;;;;;;;;6189719;23;20026;-91
2023/12/01 07:29:43;;;;;;;0.60;0.60;;;;;;;;;;6194048;23;20028;-87
2023/12/01 07:32:12;;;;;;;0.60;0.60;;;;;;;;;;6189990;23;20013;-86
2023/12/01 07:34:38;;;;;;;0.60;0.60;;;;;;;;;;6161339;23;20001;-87
2023/12/01 07:37:22;;;;;;;0.60;0.60;;;;;;;;;;6215377;23;20072;-86
2023/12/01 07:50:04;;;;;;;0.60;0.60;;;;;;;;;;6277352;23;20083;-85
2023/12/01 07:52:34;;;;;;;0.60;0.60;;;;;;;;;;6242118;23;20099;-84
2023/12/01 07:55:03;;;;;;;0.60;0.60;;;;;;;;;;6216437;23;20012;-85
2023/12/01 08:00:59;;;;;;;0.50;0.50;;;;;;;;;;6275453;23;20043;-85
2023/12/01 08:04:02;;;;;;;0.52;0.52;;;;;;;;;;6243448;23;20044;-85
2023/12/01 08:06:31;;;;;;;0.60;0.60;;;;;;;;;;6242167;23;20034;-84
2023/12/01 08:09:00;;;;;;;0.60;0.60;;;;;;;;;;6248800;23;20228;-84
2023/12/01 08:11:43;;;;;;;0.50;0.50;;;;;;;;;;6249132;23;20000;-87
2023/12/01 08:14:32;;;;;;;0.52;0.52;;;;;;;;;;6261845;23;20020;-85
2023/12/01 08:16:59;;;;;;;0.50;0.50;;;;;;;;;;6262221;23;20058;-85
2023/12/01 08:19:25;;;;;;;0.60;0.60;;;;;;;;;;6264244;23;20455;-85
2023/12/01 08:21:51;;;;;;;0.60;0.60;;;;;;;;;;6236792;23;20022;-86
2023/12/01 08:24:17;;;;;;;0.60;0.60;;;;;;;;;;6240130;23;20052;-87
2023/12/01 08:26:44;;;;;;;0.60;0.60;;;;;;;;;;6235784;23;20028;-86
2023/12/01 08:29:10;;;;;;;0.57;0.57;;;;;;;;;;6262856;23;20092;-86
2023/12/01 08:31:38;;;;;;;0.60;0.60;;;;;;;;;;6233171;23;20092;-84
2023/12/01 08:34:07;;;;;;;0.60;0.60;;;;;;;;;;6235256;23;20016;-86
2023/12/01 08:36:34;;;;;;;0.60;0.60;;;;;;;;;;6261536;23;20072;-86
2023/12/01 08:39:02;;;;;;;0.60;0.60;;;;;;;;;;6236539;23;20121;-84
2023/12/01 08:41:28;;;;;;;0.60;0.60;;;;;;;;;;6261826;22;20016;-85
2023/12/01 08:43:54;;;;;;;0.60;0.60;;;;;;;;;;6237731;23;20068;-85
2023/12/01 08:46:23;;;;;;;0.60;0.60;;;;;;;;;;6234825;23;20020;-86
2023/12/01 08:48:50;;;;;;;0.50;0.50;;;;;;;;;;6217876;23;19996;-85
2023/12/01 08:51:25;;;;;;;;;;;;;;;;;;6238143;23;20032;-85
2023/12/01 08:53:53;;;;;;;0.60;0.60;;;;;;;;;;6260762;23;19922;-87
2023/12/01 08:56:20;;;;;;;0.60;0.60;;;;;;;;;;6236685;23;20016;-85
2023/12/01 08:58:46;;;;;;;0.60;0.60;;;;;;;;;;6237196;22;20031;-86
2023/12/01 09:01:12;;;;;;;0.60;0.60;;;;;;;;;;6236822;22;20054;-87
2023/12/01 09:03:43;;;;;;;0.60;0.60;;;;;;;;;;6242449;22;20016;-86
2023/12/01 09:06:09;;;;;;;0.90;0.90;;;;;;;;;;6292826;22;20022;-85
2023/12/01 09:08:36;;;;;;;0.50;0.50;;;;;;;;;;6240341;22;20436;-86
2023/12/01 09:11:02;;;;;;;0.50;0.50;;;;;;;;;;6264120;22;20011;-85
2023/12/01 09:13:32;;;;;;;0.50;0.50;;;;;;;;;;6238178;22;20022;-86
2023/12/01 09:16:01;;;;;;;0.60;0.60;;;;;;;;;;6235983;22;20015;-85
2023/12/01 09:18:27;;;;;;;0.60;0.60;;;;;;;;;;6234018;22;20489;-86
2023/12/01 09:20:54;;;;;;;0.60;0.60;;;;;;;;;;6284753;22;20382;-85
2023/12/01 09:23:20;;;;;;;0.60;0.60;;;;;;;;;;6229858;22;20015;-85
2023/12/01 09:25:50;;;;;;;0.50;0.50;;;;;;;;;;6232662;22;20011;-86
2023/12/01 09:28:16;;;;;;;0.60;0.60;;;;;;;;;;6258890;22;20020;-85
2023/12/01 09:30:42;;;;;;;0.60;0.60;;;;;;;;;;6231427;22;20012;-86
2023/12/01 09:33:08;;;;;;;0.50;0.50;;;;;;;;;;6257643;22;20079;-86
2023/12/01 09:35:34;;;;;;;0.50;0.50;;;;;;;;;;6254637;22;20011;-87
2023/12/01 09:38:00;;;;;;;0.60;0.60;;;;;;;;;;6284124;22;20012;-85
2023/12/01 09:40:26;;;;;;;0.60;0.60;;;;;;;;;;6232772;22;20019;-85
2023/12/01 09:42:56;;;;;;;0.50;0.50;;;;;;;;;;6231348;22;20008;-86
2023/12/01 09:45:22;;;;;;;0.60;0.60;;;;;;;;;;6235084;22;20429;-85
2023/12/01 09:48:01;;;;;;;0.60;0.60;;;;;;;;;;6234462;22;20457;-86
2023/12/01 09:50:27;;;;;;;0.60;0.60;;;;;;;;;;6235829;22;20429;-85
2023/12/01 09:52:53;;;;;;;0.60;0.60;;;;;;;;;;6237379;22;20015;-85
2023/12/01 09:55:20;;;;;;;0.60;0.60;;;;;;;;;;6290042;22;20074;-86
2023/12/01 09:57:49;;;;;;;0.60;0.60;;;;;;;;;;6238518;22;20046;-86
2023/12/01 10:00:15;;;;;;;0.60;0.60;;;;;;;;;;6234204;23;20020;-85
2023/12/01 10:02:44;;;;;;;0.60;0.60;;;;;;;;;;6209750;23;20012;-86
2023/12/01 10:05:13;;;;;;;0.60;0.60;;;;;;;;;;6208384;23;20042;-85
2023/12/01 10:07:40;;;;;;;0.60;0.60;;;;;;;;;;6180996;23;20020;-87
2023/12/01 10:10:20;;;;;;;0.60;0.60;;;;;;;;;;6204930;23;20016;-85
2023/12/01 10:12:56;;;;;;;0.60;0.60;;;;;;;;;;6206261;23;20347;-86
2023/12/01 10:15:24;;;;;;;0.60;0.60;;;;;;;;;;6207407;23;20503;-86
2023/12/01 10:17:51;;;;;;;0.50;0.50;;;;;;;;;;6206340;23;20016;-86
2023/12/01 10:20:21;;;;;;;0.60;0.60;;;;;;;;;;6180264;23;20040;-86
2023/12/01 10:22:48;;;;;;;0.50;0.50;;;;;;;;;;6205302;23;20351;-86
2023/12/01 10:25:14;;;;;;;0.60;0.60;;;;;;;;;;6205559;23;20024;-85
2023/12/01 10:27:57;;;;;;;0.60;0.60;;;;;;;;;;6206706;23;20016;-85
2023/12/01 10:30:23;;;;;;;0.60;0.60;;;;;;;;;;6201827;23;20026;-86
2023/12/01 10:32:50;;;;;;;0.52;0.52;;;;;;;;;;6203590;23;20016;-86
2023/12/01 10:35:17;;;;;;;0.50;0.50;;;;;;;;;;6226108;23;20039;-86
2023/12/01 10:37:45;;;;;;;0.60;0.60;;;;;;;;;;6228045;23;20017;-87
2023/12/01 10:40:15;;;;;;;0.50;0.50;;;;;;;;;;6228471;23;20070;-86
2023/12/01 10:42:42;;;;;;;0.60;0.60;;;;;;;;;;6204324;23;20067;-86
2023/12/01 10:45:11;;;;;;;0.50;0.50;;;;;;;;;;6228684;23;20027;-85
2023/12/01 10:47:39;;;;;;;0.60;0.60;;;;;;;;;;6205124;23;20020;-85
2023/12/01 10:50:06;;;;;;;0.60;0.60;;;;;;;;;;6204615;23;20045;-86
2023/12/01 10:52:36;;;;;;;0.50;0.50;;;;;;;;;;6204444;23;20020;-85
2023/12/01 10:55:12;;;;;;;0.50;0.50;;;;;;;;;;6226129;23;20051;-85
2023/12/01 10:57:40;;;;;;;0.50;0.50;;;;;;;;;;6201277;23;20024;-85
2023/12/01 11:00:29;;;;;;;0.52;0.52;;;;;;;;;;6252543;22;20039;-87
2023/12/01 11:02:55;;;;;;;0.60;0.60;;;;;;;;;;6258257;22;20035;-86
2023/12/01 11:05:21;;;;;;;0.60;0.60;;;;;;;;;;6233326;22;20034;-84
2023/12/01 11:07:50;;;;;;;0.60;0.60;;;;;;;;;;6283682;22;20019;-86
2023/12/01 11:10:16;;;;;;;0.60;0.60;;;;;;;;;;6259144;22;20043;-87
2023/12/01 11:12:52;;;;;;;0.60;0.60;;;;;;;;;;6258022;22;20380;-85
2023/12/01 11:15:25;;;;;;;0.50;0.50;;;;;;;;;;6262705;22;20047;-85
2023/12/01 11:17:51;;;;;;;0.60;0.60;;;;;;;;;;6258863;22;20011;-86
2023/12/01 11:20:30;;;;;;;0.50;0.50;;;;;;;;;;6258564;22;20023;-86
2023/12/01 11:23:08;;;;;;;0.60;0.60;;;;;;;;;;6258901;22;20018;-85
2023/12/01 11:25:43;;;;;;;0.50;0.50;;;;;;;;;;6236013;22;20402;-86
2023/12/01 11:31:16;;;;;;;0.60;0.60;;;;;;;;;;6257345;22;20030;-86
2023/12/01 11:33:46;;;;;;;0.60;0.60;;;;;;;;;;6238190;22;20027;-86
2023/12/01 11:36:23;;;;;;;0.60;0.60;;;;;;;;;;6259569;22;20051;-85
2023/12/01 11:39:16;;;;;;;0.60;0.60;;;;;;;;;;6234339;22;20016;-85
2023/12/01 11:41:42;;;;;;;0.60;0.60;;;;;;;;;;6259018;22;20021;-85
2023/12/01 11:44:17;;;;;;;0.60;0.60;;;;;;;;;;6231436;22;20019;-86
2023/12/01 11:46:44;;;;;;;0.70;0.70;;;;;;;;;;6232395;22;20488;-87
2023/12/01 11:49:10;;;;;;;0.50;0.50;;;;;;;;;;6237140;22;20006;-86
2023/12/01 11:51:45;;;;;;;0.50;0.50;;;;;;;;;;6234389;22;20016;-86
2023/12/01 11:54:12;;;;;;;0.50;0.50;;;;;;;;;;6234185;22;20518;-85
2023/12/01 11:56:39;;;;;;;0.60;0.60;;;;;;;;;;6233030;22;20016;-86
2023/12/01 11:59:08;;;;;;;0.50;0.50;;;;;;;;;;6237513;22;20018;-85
2023/12/01 12:01:34;;;;;;;0.50;0.50;;;;;;;;;;6231641;22;20012;-85
2023/12/01 12:04:03;;;;;;;0.50;0.50;;;;;;;;;;6231937;22;20018;-86
2023/12/01 12:06:33;;;;;;;0.57;0.57;;;;;;;;;;6236003;22;20015;-86
2023/12/01 12:09:06;;;;;;;0.50;0.50;;;;;;;;;;6262036;22;20020;-85
2023/12/01 12:11:36;;;;;;;0.60;0.60;;;;;;;;;;6258271;22;20015;-86
2023/12/01 12:14:03;;;;;;;0.52;0.52;;;;;;;;;;6234768;22;20023;-86
2023/12/01 12:16:29;;;;;;;0.60;0.60;;;;;;;;;;6234724;22;20018;-86
2023/12/01 12:18:59;;;;;;;0.60;0.60;;;;;;;;;;6260593;22;20015;-88
2023/12/01 12:21:26;;;;;;;0.60;0.60;;;;;;;;;;6235580;22;20008;-86
2023/12/01 12:23:52;;;;;;;0.60;0.60;;;;;;;;;;6232940;22;20016;-85
2023/12/01 12:26:23;;;;;;;0.52;0.52;;;;;;;;;;6233566;22;20019;-85
2023/12/01 12:29:04;;;;;;;0.60;0.60;;;;;;;;;;6260110;22;20023;-86
2023/12/01 12:31:31;;;;;;;0.50;0.50;;;;;;;;;;6234158;22;20046;-87
2023/12/01 12:33:59;;;;;;;0.50;0.50;;;;;;;;;;6291741;22;20046;-86
2023/12/01 12:36:28;;;;;;;0.50;0.50;;;;;;;;;;6240527;22;20012;-85
2023/12/01 12:38:55;;;;;;;0.50;0.50;;;;;;;;;;6264515;22;20007;-85
2023/12/01 12:41:29;;;;;;;0.60;0.60;;;;;;;;;;6263605;22;20011;-86
2023/12/01 12:43:58;;;;;;;0.50;0.50;;;;;;;;;;6240739;22;20035;-85
2023/12/01 12:46:28;;;;;;;0.60;0.60;;;;;;;;;;6237290;22;20022;-86
2023/12/01 12:49:21;;;;;;;0.50;0.50;;;;;;;;;;6239737;22;20102;-86
2023/12/01 12:51:47;;;;;;;0.55;0.55;;;;;;;;;;6229808;22;20016;-85
2023/12/01 12:54:15;;;;;;;0.60;0.60;;;;;;;;;;6237277;22;20019;-86
2023/12/01 12:56:41;;;;;;;0.60;0.60;;;;;;;;;;6292034;22;20015;-86
2023/12/01 12:59:07;;;;;;;0.55;0.55;;;;;;;;;;6238672;22;20350;-84
2023/12/01 13:01:36;;;;;;;0.60;0.60;;;;;;;;;;6234030;22;20015;-86
2023/12/01 13:04:02;;;;;;;0.50;0.50;;;;;;;;;;6262948;22;20112;-86
2023/12/01 13:06:28;;;;;;;0.50;0.50;;;;;;;;;;6263377;22;20019;-85
2023/12/01 13:09:01;;;;;;;0.50;0.50;;;;;;;;;;6233912;22;20022;-86
2023/12/01 13:11:27;;;;;;;0.50;0.50;;;;;;;;;;6234673;22;20072;-82
2023/12/01 13:13:55;;;;;;;0.50;0.50;;;;;;;;;;6263087;22;20022;-86
2023/12/01 13:16:21;;;;;;;0.60;0.60;;;;;;;;;;6258397;22;20020;-88
2023/12/01 13:19:07;;;;;;;0.50;0.50;;;;;;;;;;6259536;22;20015;-85
2023/12/01 13:21:35;;;;;;;0.50;0.50;;;;;;;;;;6229748;22;20142;-85
2023/12/01 13:24:01;;;;;;;0.50;0.50;;;;;;;;;;6233936;22;20090;-86
2023/12/01 13:26:27;;;;;;;0.50;0.50;;;;;;;;;;6257820;22;20016;-85
2023/12/01 13:28:54;;;;;;;0.60;0.60;;;;;;;;;;6258021;22;20027;-84
2023/12/01 13:31:25;;;;;;;0.40;0.40;;;;;;;;;;6227728;22;20091;-85
2023/12/01 13:33:52;;;;;;;1.45;1.35;;;;;;;;;;6235356;22;20020;-86
2023/12/01 13:36:22;;;;;;;0.55;0.55;;;;;;;;;;6236062;22;20020;-88
2023/12/01 13:38:48;;;;;;;0.57;0.57;;;;;;;;;;6234718;22;20019;-86
2023/12/01 13:41:14;;;;;;;0.50;0.50;;;;;;;;;;6233756;22;20020;-87
2023/12/01 13:43:40;;;;;;;0.50;0.50;;;;;;;;;;6235003;22;20004;-88
2023/12/01 13:46:06;;;;;;;0.60;0.60;;;;;;;;;;6234265;22;20015;-87
2023/12/01 13:48:33;;;;;;;0.50;0.50;;;;;;;;;;6266165;22;20020;-87
2023/12/01 13:50:59;;;;;;;0.60;0.60;;;;;;;;;;6239839;22;20023;-89
2023/12/01 13:53:25;;;;;;;0.60;0.60;;;;;;;;;;6268391;22;20043;-88
2023/12/01 13:55:51;;;;;;;0.50;0.50;;;;;;;;;;6239757;22;20062;-87
2023/12/01 13:58:20;;;;;;;0.50;0.50;;;;;;;;;;6239845;22;20447;-87
2023/12/01 14:00:48;;;;;;;0.55;0.55;;;;;;;;;;6234869;22;20022;-88
2023/12/01 14:03:14;;;;;;;0.60;0.60;;;;;;;;;;6236384;22;20019;-89
2023/12/01 14:05:40;;;;;;;0.50;0.50;;;;;;;;;;6236399;22;20042;-88
2023/12/01 14:08:09;;;;;;;0.50;0.50;;;;;;;;;;6237917;22;20016;-88
2023/12/01 14:10:35;;;;;;;0.50;0.50;;;;;;;;;;6237219;22;20026;-88
2023/12/01 14:13:06;;;;;;;0.60;0.60;;;;;;;;;;6289244;22;20020;-87
2023/12/01 14:15:32;;;;;;;0.60;0.60;;;;;;;;;;6236102;22;20016;-87
2023/12/01 14:17:58;;;;;;;0.50;0.50;;;;;;;;;;6231608;22;20097;-86
2023/12/01 14:20:24;;;;;;;0.60;0.60;;;;;;;;;;6262260;22;20015;-88
2023/12/01 14:22:50;;;;;;;0.50;0.50;;;;;;;;;;6238754;22;20018;-87
2023/12/01 14:25:16;;;;;;;0.50;0.50;;;;;;;;;;6237838;22;20069;-87
2023/12/01 14:27:42;;;;;;;0.50;0.50;;;;;;;;;;6236058;22;20024;-85
2023/12/01 14:30:08;;;;;;;0.60;0.60;;;;;;;;;;6229825;22;20023;-84
2023/12/01 14:32:36;;;;;;;0.50;0.50;;;;;;;;;;6233188;22;20016;-85
2023/12/01 14:35:02;;;;;;;0.50;0.50;;;;;;;;;;6208500;22;20077;-86
2023/12/01 14:37:29;;;;;;;0.60;0.60;;;;;;;;;;6259858;22;20043;-86
2023/12/01 14:39:55;;;;;;;0.50;0.50;;;;;;;;;;6235380;22;20046;-86
2023/12/01 14:42:21;;;;;;;0.55;0.55;;;;;;;;;;6234347;22;20065;-86
2023/12/01 14:44:48;;;;;;;0.60;0.60;;;;;;;;;;6231153;22;20012;-85
2023/12/01 14:47:28;;;;;;;0.50;0.50;;;;;;;;;;6237014;22;20011;-87
2023/12/01 14:49:55;;;;;;;0.50;0.50;;;;;;;;;;6234103;22;20012;-86
2023/12/01 14:52:40;;;;;;;0.50;0.50;;;;;;;;;;6261517;22;20018;-86
2023/12/01 14:55:06;;;;;;;0.50;0.50;;;;;;;;;;6234608;22;20019;-86
2023/12/01 14:57:32;;;;;;;0.60;0.60;;;;;;;;;;6237767;22;20015;-87
2023/12/01 15:00:03;;;;;;;0.50;0.50;;;;;;;;;;6233673;22;20067;-87
2023/12/01 15:02:29;;;;;;;0.60;0.60;;;;;;;;;;6237709;22;20008;-84
2023/12/01 15:05:10;;;;;;;0.50;0.50;;;;;;;;;;6237623;22;20016;-86
2023/12/01 15:07:41;;;;;;;0.50;0.50;;;;;;;;;;6232874;22;20098;-86
2023/12/01 15:10:08;;;;;;;0.60;0.60;;;;;;;;;;6257451;22;20109;-86
2023/12/01 15:12:34;;;;;;;0.52;0.52;;;;;;;;;;6236007;22;20058;-86
2023/12/01 15:15:00;;;;;;;0.50;0.50;;;;;;;;;;6235351;22;20190;-86
2023/12/01 15:17:26;;;;;;;0.60;0.60;;;;;;;;;;6228052;22;20016;-86
2023/12/01 15:19:52;;;;;;;0.50;0.50;;;;;;;;;;6261100;22;20014;-86
2023/12/01 15:22:30;;;;;;;0.50;0.50;;;;;;;;;;6267105;22;20109;-86
2023/12/01 15:24:56;;;;;;;0.55;0.55;;;;;;;;;;6264165;22;20019;-86
2023/12/01 15:27:23;;;;;;;0.50;0.50;;;;;;;;;;6239265;22;20018;-86
2023/12/01 15:29:49;;;;;;;0.60;0.60;;;;;;;;;;6261180;22;20022;-87
2023/12/01 15:32:34;;;;;;;0.63;0.63;;;;;;;;;;6239784;22;20016;-85
2023/12/01 15:35:00;;;;;;;0.50;0.50;;;;;;;;;;6264109;22;20335;-85
2023/12/01 15:37:29;;;;;;;0.60;0.60;;;;;;;;;;6264529;22;20011;-86
2023/12/01 15:39:55;;;;;;;0.60;0.60;;;;;;;;;;6264981;22;20014;-86
2023/12/01 15:42:24;;;;;;;0.50;0.50;;;;;;;;;;6266598;22;20019;-87
2023/12/01 15:45:03;;;;;;;0.50;0.50;;;;;;;;;;6265557;22;20022;-86
2023/12/01 15:47:31;;;;;;;0.60;0.60;;;;;;;;;;6266689;22;20054;-87
2023/12/01 15:49:57;;;;;;;0.50;0.50;;;;;;;;;;6240933;22;20072;-86
2023/12/01 15:52:23;;;;;;;0.50;0.50;;;;;;;;;;6266977;22;20026;-86
2023/12/01 15:54:53;;;;;;;0.50;0.50;;;;;;;;;;6243345;22;20046;-87
2023/12/01 15:57:19;;;;;;;0.60;0.60;;;;;;;;;;6239763;22;19996;-86
2023/12/01 16:00:04;;;;;;;1.48;1.38;;;;;;;;;;6276104;22;20031;-88
2023/12/01 16:02:36;;;;;;;0.50;0.50;;;;;;;;;;6246990;23;20024;-88
2023/12/01 16:10:14;;;;;;;0.50;0.50;;;;;;;;;;6229502;22;20464;-86
2023/12/01 16:12:40;;;;;;;0.60;0.60;;;;;;;;;;6203787;23;20348;-86
2023/12/01 16:15:09;;;;;;;0.50;0.50;;;;;;;;;;6226784;23;20028;-86
2023/12/01 16:17:35;;;;;;;0.50;0.50;;;;;;;;;;6200563;23;20013;-86
2023/12/01 16:20:01;;;;;;;0.50;0.50;;;;;;;;;;6225738;23;20444;-87
2023/12/01 16:22:28;;;;;;;0.50;0.50;;;;;;;;;;6227744;23;20013;-87